Terminal Aerodrome Forecast
Issued by NWS Duluth, MN

Home | Current Version | Previous Version | Text Only | Print | Product List | Glossary On
Versions: 1 2 3 4 5 6 7 8 9 10 11 12 13 14 15 16 17 18 19 20 21 22 23 24 25 26 27 28 29
000
FTUS43 KDLH 290500
TAFINL
TAF
KINL 290521Z 2906/3006 32010KT 6SM -FZDZSN BR OVC012
     FM290900 32012G26KT 3SM -SN BLSN OVC009
     FM291800 31010KT P6SM -SN OVC016
     FM300200 28005KT P6SM OVC008=

USA.gov is the U.S. government's official web portal to all federal, state and local government web resources and services.